Terminal Aerodrome Forecast
Issued by NWS

Home | Current Version | Previous Version | Graphics & Text | Print | Product List | Glossary On
Versions: 1 2 3 4 5 6 7 8 9 10 11 12 13 14 15 16 17 18 19 20
000
FTUS43 KTOP 201730
TAFFOE
TAF
KFOE 201730Z 2018/2118 18010KT P6SM BKN025
     FM210000 13005KT P6SM SCT006
     FM210200 13005KT 5SM BR SCT006
     FM210500 12005KT 2SM BR BKN004
     FM211300 13006KT 6SM BR SCT005 BKN012=

USA.gov is the U.S. government's official web portal to all federal, state and local government web resources and services.